This is the latest recevied weather packets stored in our database for station/object HB9BVR. If no packets are shown the sender has not sent any weather packets the latest 10 day(s).
| Time | Temp. | Humidity | Pressure | Rain* | Wind** | Luminosity | Snow |
|---|---|---|---|---|---|---|---|
| 1787994199 | 21.11° C | 63% | - | 0 mm | - | - | - |
| 1787992399 | 21.11° C | 66% | - | 0 mm | - | - | - |
| 1787987010 | 17.22° C | 80% | - | 0 mm | - | - | - |
| 1787978900 | 15° C | 84% | - | 0 mm | - | - | - |
| 1787977100 | 15° C | 85% | - | 0 mm | - | - | - |
| 1787966302 | 15.56° C | 86% | - | 0 mm | - | - | - |
| 1787962701 | 16.11° C | 86% | - | 0 mm | - | - | - |
| 1787960901 | 16.11° C | 85% | - | 0 mm | - | - | - |
| 1787958200 | 16.11° C | 83% | - | 0 mm | - | - | - |
| 1787957300 | 16.11° C | 83% | - | 0 mm | - | - | - |
| 1787955499 | 16.67° C | 83% | - | 0 mm | - | - | - |
| 1787932099 | 18.89° C | 80% | - | 0.76 mm | - | - | - |
| 1787929398 | 19.44° C | 76% | - | 2.79 mm | - | - | - |
| 1787927600 | 20.56° C | 72% | - | 0 mm | - | - | - |
| 1787923101 | 21.67° C | 69% | - | 0 mm | - | - | - |
| 1787921300 | 21.11° C | 74% | - | 0.76 mm | - | - | - |
| 1787900600 | 21.67° C | 75% | - | 0 mm | - | - | - |
| 1787896099 | 20° C | 78% | - | 0 mm | - | - | - |
| 1787894299 | 20° C | 79% | - | 0 mm | - | - | - |
| 1787887097 | 20.56° C | 74% | - | 0 mm | - | - | - |
| 1787869997 | 24.44° C | 61% | - | 0 mm | - | - | - |
| 1787861895 | 24.44° C | 63% | - | 0 mm | - | - | - |
| 1787856499 | 25.56° C | 62% | - | 0 mm | - | - | - |
| 1787831297 | 29.44° C | 51% | - | 0 mm | - | - | - |
| 1787828596 | 28.89° C | 51% | - | 0 mm | - | - | - |
* Rain latest hour (hover to see other rain measurements)
** Current wind speed in m/s (hover to see current wind gust speed)